createdAt,value
2023-04-25T00:00:29.134Z,87.53
2023-04-25T00:02:58.287Z,87.89
2023-04-25T00:05:26.988Z,88.53
2023-04-25T00:07:55.609Z,89.52
2023-04-25T00:10:23.850Z,89.00
2023-04-25T00:12:52.727Z,88.63
2023-04-25T00:15:22.231Z,89.56
2023-04-25T00:17:50.494Z,89.52
2023-04-25T00:20:18.813Z,89.47
2023-04-25T00:22:47.373Z,89.45
2023-04-25T00:25:15.671Z,88.79
2023-04-25T00:27:43.771Z,88.16
2023-04-25T00:30:13.197Z,87.75
2023-04-25T00:32:42.800Z,87.31
2023-04-25T00:35:11.440Z,87.52
2023-04-25T00:37:39.688Z,87.35
2023-04-25T00:40:09.001Z,87.06
2023-04-25T00:42:38.154Z,87.09
2023-04-25T00:45:09.352Z,86.80
2023-04-25T00:47:38.543Z,86.05
2023-04-25T00:50:10.544Z,85.92
2023-04-25T00:52:40.681Z,85.74
2023-04-25T00:55:09.728Z,85.50
2023-04-25T00:57:38.494Z,85.41
2023-04-25T01:00:12.009Z,86.00
2023-04-25T01:02:40.391Z,87.25
2023-04-25T01:05:10.935Z,88.13
2023-04-25T01:07:39.378Z,88.27
2023-04-25T01:10:08.795Z,89.34
2023-04-25T01:12:37.259Z,88.93
2023-04-25T01:15:07.552Z,89.16
2023-04-25T01:17:36.807Z,89.56
2023-04-25T01:20:06.519Z,89.62
2023-04-25T01:22:36.405Z,90.71
2023-04-25T01:25:05.075Z,91.81
2023-04-25T01:27:33.591Z,92.02
2023-04-25T01:30:02.571Z,92.10
2023-04-25T01:32:39.286Z,91.19
2023-04-25T01:35:10.360Z,91.57
2023-04-25T01:37:40.091Z,92.38
2023-04-25T01:40:09.861Z,92.61
2023-04-25T01:42:39.437Z,92.00
2023-04-25T01:45:09.832Z,92.42
2023-04-25T01:47:38.032Z,92.51
2023-04-25T01:50:09.628Z,93.00
2023-04-25T01:52:40.483Z,92.94
2023-04-25T01:55:10.314Z,91.56
2023-04-25T01:57:41.813Z,90.28
2023-04-25T02:00:11.379Z,90.27
2023-04-25T02:02:42.450Z,90.56
2023-04-25T02:05:22.475Z,90.47
2023-04-25T02:07:52.080Z,90.91
2023-04-25T02:10:20.328Z,91.30
2023-04-25T02:13:06.305Z,91.48
2023-04-25T02:15:44.116Z,91.75
2023-04-25T02:18:17.494Z,91.46
2023-04-25T02:20:46.486Z,91.20
2023-04-25T02:23:16.836Z,90.96
2023-04-25T02:25:45.203Z,91.25
2023-04-25T02:28:13.577Z,91.41
2023-04-25T02:30:41.763Z,91.19
2023-04-25T02:33:10.169Z,90.56
2023-04-25T02:35:38.330Z,90.90
2023-04-25T02:38:06.637Z,90.90
2023-04-25T02:40:36.466Z,90.13
2023-04-25T02:43:04.528Z,90.39
2023-04-25T02:45:32.901Z,90.70
2023-04-25T02:48:01.224Z,90.83
2023-04-25T02:50:29.737Z,91.48
2023-04-25T02:52:57.850Z,91.70
2023-04-25T02:55:31.567Z,91.06
2023-04-25T02:58:03.619Z,91.21
2023-04-25T03:00:42.358Z,91.70
2023-04-25T03:03:10.563Z,91.32
2023-04-25T03:05:38.831Z,91.36
2023-04-25T03:08:08.001Z,91.26
2023-04-25T03:10:39.114Z,91.29
2023-04-25T03:13:11.640Z,91.13
2023-04-25T03:15:40.968Z,91.45
2023-04-25T03:18:09.390Z,91.49
2023-04-25T03:20:37.704Z,91.80
2023-04-25T03:23:05.850Z,91.16
2023-04-25T03:25:33.912Z,91.75
2023-04-25T03:28:02.512Z,92.19
2023-04-25T03:30:32.416Z,92.34
2023-04-25T03:33:00.640Z,92.49
2023-04-25T03:35:28.968Z,92.55
2023-04-25T03:37:57.133Z,92.57
2023-04-25T03:40:30.613Z,92.86
2023-04-25T03:43:13.532Z,92.93
2023-04-25T03:45:49.496Z,92.91
2023-04-25T03:48:22.534Z,93.02
2023-04-25T03:50:51.514Z,92.92
2023-04-25T03:53:19.961Z,93.15
2023-04-25T03:56:11.083Z,93.21
2023-04-25T03:58:41.349Z,93.28
2023-04-25T04:01:11.404Z,93.39
2023-04-25T04:03:41.832Z,93.57
2023-04-25T04:06:11.807Z,93.25
2023-04-25T04:08:46.224Z,93.50
2023-04-25T04:11:14.363Z,93.63
2023-04-25T04:13:42.896Z,94.12
2023-04-25T04:16:12.616Z,93.94
2023-04-25T04:18:41.239Z,93.88
2023-04-25T04:21:09.331Z,93.65
2023-04-25T04:23:40.838Z,94.41
2023-04-25T04:26:12.434Z,94.47
2023-04-25T04:29:01.343Z,94.18
2023-04-25T04:32:02.130Z,93.95
2023-04-25T04:34:32.096Z,93.87
2023-04-25T04:37:01.431Z,93.17
2023-04-25T04:39:29.912Z,93.56
2023-04-25T04:42:20.693Z,93.59
2023-04-25T04:44:57.269Z,93.57
2023-04-25T04:47:31.896Z,93.51
2023-04-25T04:50:20.338Z,93.17
2023-04-25T04:53:11.743Z,92.45
2023-04-25T04:55:47.359Z,92.44
2023-04-25T04:58:37.628Z,91.36
2023-04-25T05:01:22.185Z,90.79
2023-04-25T05:04:08.247Z,90.48
2023-04-25T05:07:02.747Z,88.68
2023-04-25T05:09:34.077Z,88.54
2023-04-25T05:12:21.113Z,87.60
2023-04-25T05:14:58.895Z,84.96
2023-04-25T05:17:54.663Z,85.05
2023-04-25T05:20:35.181Z,83.90
2023-04-25T05:23:22.047Z,84.42
2023-04-25T05:26:02.874Z,83.81
2023-04-25T05:28:39.735Z,82.36
2023-04-25T05:31:26.789Z,82.74
2023-04-25T05:34:05.052Z,81.30
2023-04-25T05:36:49.434Z,81.17
2023-04-25T05:39:18.231Z,80.13
2023-04-25T05:42:09.417Z,80.72
2023-04-25T05:44:46.918Z,80.74
2023-04-25T05:47:41.566Z,80.49
2023-04-25T05:50:23.821Z,81.41
2023-04-25T05:53:07.153Z,81.54
2023-04-25T05:55:41.765Z,80.15
2023-04-25T05:58:27.255Z,79.79
2023-04-25T06:00:56.486Z,79.99
2023-04-25T06:03:25.419Z,78.58
2023-04-25T06:05:54.059Z,79.52
2023-04-25T06:08:23.600Z,78.79
2023-04-25T06:10:52.116Z,77.46
2023-04-25T06:13:21.038Z,75.25
2023-04-25T06:15:50.354Z,75.52
2023-04-25T06:18:19.649Z,75.82
2023-04-25T06:20:48.087Z,75.77
2023-04-25T06:23:16.491Z,75.42
2023-04-25T06:25:53.748Z,75.08
2023-04-25T06:28:23.160Z,74.71
2023-04-25T06:30:51.474Z,76.49
2023-04-25T06:33:22.685Z,74.68
2023-04-25T06:35:51.586Z,73.97
2023-04-25T06:38:24.704Z,74.56
2023-04-25T06:40:55.650Z,73.22
2023-04-25T06:43:23.799Z,72.06
2023-04-25T06:46:13.274Z,72.90
2023-04-25T06:48:45.938Z,70.97
2023-04-25T06:51:14.722Z,70.33
2023-04-25T06:53:44.299Z,69.58
2023-04-25T06:56:22.491Z,70.49
2023-04-25T06:59:08.341Z,69.35
2023-04-25T07:01:41.756Z,68.10
2023-04-25T07:04:28.447Z,63.22
2023-04-25T07:06:58.693Z,66.47
2023-04-25T07:09:52.407Z,65.61
2023-04-25T07:12:23.479Z,65.71
2023-04-25T07:14:51.652Z,69.20
2023-04-25T07:17:19.988Z,65.03
2023-04-25T07:19:48.469Z,66.01
2023-04-25T07:22:16.619Z,64.40
2023-04-25T07:24:48.523Z,65.18
2023-04-25T07:27:18.399Z,64.49
2023-04-25T07:29:59.289Z,65.79
2023-04-25T07:32:27.971Z,65.22
2023-04-25T07:34:56.435Z,61.25
2023-04-25T07:37:24.690Z,59.72
2023-04-25T07:40:16.812Z,60.56
2023-04-25T07:42:49.312Z,55.25
2023-04-25T07:45:23.077Z,47.96
2023-04-25T07:47:51.555Z,48.52
2023-04-25T07:50:19.960Z,52.58
2023-04-25T07:52:48.957Z,59.47
2023-04-25T07:55:24.523Z,57.56
2023-04-25T07:58:22.455Z,52.24
2023-04-25T08:00:56.407Z,53.44
2023-04-25T08:03:41.694Z,52.55
2023-04-25T08:06:17.372Z,50.90
2023-04-25T08:09:00.941Z,49.82
2023-04-25T08:11:36.409Z,54.14
2023-04-25T08:14:04.779Z,58.27
2023-04-25T08:16:34.495Z,54.90
2023-04-25T08:19:03.195Z,54.01
2023-04-25T08:21:32.498Z,45.39
2023-04-25T08:24:03.798Z,52.71
2023-04-25T08:26:35.920Z,57.95
2023-04-25T08:29:04.464Z,54.29
2023-04-25T08:31:34.193Z,48.34
2023-04-25T08:34:04.815Z,47.06
2023-04-25T08:36:59.087Z,43.53
2023-04-25T08:39:43.257Z,50.85
2023-04-25T08:42:25.962Z,55.39
2023-04-25T08:44:55.814Z,58.56
2023-04-25T08:47:31.212Z,59.20
2023-04-25T08:50:03.759Z,54.46
2023-04-25T08:52:37.887Z,46.97
2023-04-25T08:55:09.545Z,44.82
2023-04-25T08:57:39.094Z,44.51
2023-04-25T09:00:10.044Z,44.99
2023-04-25T09:02:44.703Z,42.85
2023-04-25T09:05:15.577Z,46.59
2023-04-25T09:07:44.862Z,48.15
2023-04-25T09:10:13.628Z,44.63
2023-04-25T09:12:41.842Z,42.88
2023-04-25T09:15:19.677Z,41.54
2023-04-25T09:18:08.801Z,45.69
2023-04-25T09:21:00.793Z,53.10
2023-04-25T09:23:40.629Z,55.16
2023-04-25T09:26:10.837Z,52.49
2023-04-25T09:28:39.680Z,51.05
2023-04-25T09:31:08.601Z,48.99
2023-04-25T09:33:46.490Z,47.15
2023-04-25T09:36:15.312Z,43.69
2023-04-25T09:39:16.268Z,41.06
2023-04-25T09:41:49.825Z,45.08
2023-04-25T09:44:25.671Z,49.29
2023-04-25T09:46:55.698Z,53.56
2023-04-25T09:49:29.581Z,50.18
2023-04-25T09:52:21.971Z,46.27
2023-04-25T09:54:59.609Z,46.63
2023-04-25T09:57:34.235Z,43.78
2023-04-25T10:00:10.767Z,49.64
2023-04-25T10:02:49.536Z,48.68
2023-04-25T10:05:53.492Z,52.88
2023-04-25T10:08:22.589Z,52.76
2023-04-25T10:10:52.013Z,53.85
2023-04-25T10:13:22.005Z,55.55
2023-04-25T10:15:51.095Z,56.52
2023-04-25T10:18:20.986Z,58.11
2023-04-25T10:20:53.323Z,54.91
2023-04-25T10:23:23.029Z,51.91
2023-04-25T10:25:52.539Z,48.30
2023-04-25T10:28:21.036Z,49.39
2023-04-25T10:31:02.080Z,51.44
2023-04-25T10:33:37.568Z,52.36
2023-04-25T10:36:13.454Z,57.60
2023-04-25T10:38:42.099Z,56.12
2023-04-25T10:41:11.783Z,57.68
2023-04-25T10:43:41.398Z,57.38
2023-04-25T10:46:20.467Z,54.88
2023-04-25T10:48:51.211Z,55.71
2023-04-25T10:51:23.273Z,53.61
2023-04-25T10:54:03.228Z,53.74
2023-04-25T10:56:33.268Z,55.55
2023-04-25T10:59:11.232Z,54.49
2023-04-25T11:01:43.081Z,57.05
2023-04-25T11:04:25.142Z,55.25
2023-04-25T11:07:08.256Z,53.88
2023-04-25T11:09:38.475Z,57.80
2023-04-25T11:12:09.494Z,59.99
2023-04-25T11:17:06.915Z,61.19
2023-04-25T11:19:35.239Z,58.91
2023-04-25T11:22:06.194Z,58.63
2023-04-25T11:24:36.500Z,56.83
2023-04-25T11:27:07.903Z,58.50
2023-04-25T11:29:37.364Z,59.29
2023-04-25T11:32:06.218Z,61.59
2023-04-25T11:34:35.333Z,62.07
2023-04-25T11:37:05.245Z,61.78
2023-04-25T11:39:33.870Z,62.99
2023-04-25T11:42:07.518Z,63.10
2023-04-25T11:44:42.273Z,62.66
2023-04-25T11:47:10.940Z,60.77
2023-04-25T11:49:39.045Z,62.04
2023-04-25T11:52:09.957Z,58.34
2023-04-25T11:54:39.015Z,59.18
2023-04-25T11:57:07.565Z,57.12
2023-04-25T11:59:36.147Z,58.20
2023-04-25T12:02:04.481Z,58.15
2023-04-25T12:04:34.271Z,56.72
2023-04-25T12:07:03.560Z,57.42
2023-04-25T12:09:34.621Z,57.65
2023-04-25T12:12:04.887Z,60.57
2023-04-25T12:14:34.802Z,60.61
2023-04-25T12:17:05.169Z,61.87
2023-04-25T12:19:35.824Z,60.25
2023-04-25T12:22:05.202Z,59.15
2023-04-25T12:24:39.101Z,59.06
2023-04-25T12:27:10.015Z,58.81
2023-04-25T12:29:49.083Z,60.08
2023-04-25T12:32:18.566Z,60.78
2023-04-25T12:34:47.171Z,62.03
2023-04-25T12:37:16.741Z,62.30
2023-04-25T12:39:46.348Z,61.56
2023-04-25T12:42:14.935Z,62.31
2023-04-25T12:44:43.021Z,65.06
2023-04-25T12:47:11.792Z,66.27
2023-04-25T12:49:40.195Z,66.85
2023-04-25T12:52:08.318Z,68.63
2023-04-25T12:54:36.616Z,70.27
2023-04-25T12:57:06.348Z,72.06
2023-04-25T12:59:34.943Z,75.73
2023-04-25T13:02:04.043Z,78.76
2023-04-25T13:04:32.578Z,76.63
2023-04-25T13:07:01.062Z,75.57
2023-04-25T13:09:29.307Z,75.06
2023-04-25T13:11:59.358Z,75.63
2023-04-25T13:14:29.126Z,74.87
2023-04-25T13:16:57.591Z,71.73
2023-04-25T13:19:26.721Z,73.25
2023-04-25T13:21:55.149Z,72.17
2023-04-25T13:24:23.381Z,72.08
2023-04-25T13:26:52.490Z,71.80
2023-04-25T13:29:20.620Z,68.75
2023-04-25T13:31:50.184Z,66.85
2023-04-25T13:34:18.497Z,65.83
2023-04-25T13:36:46.767Z,67.27
2023-04-25T13:39:15.351Z,63.24
2023-04-25T13:41:43.749Z,65.90
2023-04-25T13:44:12.126Z,62.37
2023-04-25T13:46:46.942Z,61.49
2023-04-25T13:49:16.947Z,60.38
2023-04-25T13:51:46.509Z,64.76
2023-04-25T13:54:14.650Z,64.81
2023-04-25T13:56:43.677Z,66.31
2023-04-25T13:59:12.499Z,66.76
2023-04-25T14:01:40.747Z,66.71
2023-04-25T14:04:09.400Z,66.49
2023-04-25T14:06:38.899Z,68.39
2023-04-25T14:09:08.231Z,68.99
2023-04-25T14:11:36.452Z,68.93
2023-04-25T14:14:05.182Z,67.87
2023-04-25T14:16:33.660Z,68.75
2023-04-25T14:19:01.998Z,69.98
2023-04-25T14:21:33.617Z,69.99
2023-04-25T14:24:03.508Z,68.50
2023-04-25T14:26:32.488Z,67.90
2023-04-25T14:29:01.060Z,67.83
2023-04-25T14:31:29.367Z,67.34
2023-04-25T14:33:59.361Z,67.22
2023-04-25T14:36:28.511Z,68.00
2023-04-25T14:38:57.230Z,64.77
2023-04-25T14:41:28.258Z,64.94
2023-04-25T14:43:58.008Z,63.45
2023-04-25T14:46:26.795Z,64.30
2023-04-25T14:48:57.075Z,65.67
2023-04-25T14:51:25.737Z,66.33
2023-04-25T14:53:54.427Z,68.10
2023-04-25T14:56:22.804Z,67.61
2023-04-25T14:58:52.501Z,68.76
2023-04-25T15:01:23.129Z,69.11
2023-04-25T16:17:42.354Z,69.61
2023-04-25T16:24:48.006Z,71.46
2023-04-25T16:27:18.392Z,71.23
2023-04-25T16:29:46.626Z,70.01
2023-04-25T16:32:15.010Z,65.84
2023-04-25T16:34:44.478Z,66.50
2023-04-25T16:37:12.834Z,66.10
2023-04-25T16:39:40.981Z,65.41
2023-04-25T16:42:09.092Z,65.68
2023-04-25T16:44:37.425Z,65.12
2023-04-25T16:47:06.343Z,64.64
2023-04-25T16:49:34.687Z,63.79
2023-04-25T16:52:04.426Z,63.85
2023-04-25T16:54:32.584Z,65.61
2023-04-25T16:57:01.392Z,64.28
2023-04-25T16:59:29.465Z,64.72
2023-04-25T17:01:58.381Z,64.69
2023-04-25T17:04:26.955Z,65.32
2023-04-25T17:06:55.215Z,64.61
2023-04-25T17:09:24.826Z,64.38
2023-04-25T17:11:53.122Z,64.58
2023-04-25T17:14:21.414Z,65.03
2023-04-25T17:16:49.817Z,64.25
2023-04-25T17:19:18.283Z,64.33
2023-04-25T17:21:46.665Z,63.71
2023-04-25T17:24:16.079Z,64.21
2023-04-25T17:26:47.542Z,63.64
2023-04-25T17:29:17.358Z,62.73
2023-04-25T17:31:45.845Z,65.34
2023-04-25T17:34:17.940Z,64.38
2023-04-25T17:36:46.588Z,65.46
2023-04-25T17:39:17.390Z,65.74
2023-04-25T17:41:47.317Z,65.27
2023-04-25T17:44:15.483Z,65.68
2023-04-25T17:46:43.875Z,65.35
2023-04-25T17:49:12.457Z,66.13
2023-04-25T17:51:40.650Z,67.05
2023-04-25T17:54:09.489Z,66.64
2023-04-25T17:56:38.965Z,65.78
2023-04-25T17:59:08.533Z,66.91
2023-04-25T18:01:36.951Z,67.20
2023-04-25T18:04:05.859Z,68.12
2023-04-25T18:06:34.305Z,66.38
2023-04-25T18:09:03.528Z,66.09
2023-04-25T18:11:32.063Z,66.47
2023-04-25T18:14:00.942Z,66.85
2023-04-25T18:16:31.453Z,65.20
2023-04-25T18:19:05.427Z,66.39
2023-04-25T18:21:34.379Z,66.65
2023-04-25T18:24:02.701Z,68.39
2023-04-25T18:26:31.619Z,67.98
2023-04-25T18:29:00.100Z,69.19
2023-04-25T18:31:29.933Z,69.08
2023-04-25T18:33:59.637Z,67.99
2023-04-25T18:36:29.030Z,69.20
2023-04-25T18:38:59.503Z,67.37
2023-04-25T18:41:52.114Z,68.62
2023-04-25T18:44:18.545Z,68.59
2023-04-25T18:46:47.328Z,67.63
2023-04-25T18:49:16.811Z,68.12
2023-04-25T18:51:45.462Z,67.74
2023-04-25T18:54:13.957Z,68.76
2023-04-25T18:56:41.942Z,68.96
2023-04-25T18:59:11.181Z,68.95
2023-04-25T19:01:39.530Z,69.96
2023-04-25T19:04:07.758Z,69.46
2023-04-25T19:06:37.243Z,69.73
2023-04-25T19:09:05.754Z,70.60
2023-04-25T19:11:34.535Z,71.30
2023-04-25T19:14:02.884Z,69.84
2023-04-25T19:16:37.602Z,70.78
2023-04-25T19:19:07.225Z,70.88
2023-04-25T19:21:37.274Z,71.13
2023-04-25T19:24:07.110Z,72.55
2023-04-25T19:26:35.662Z,73.72
2023-04-25T19:29:06.080Z,74.70
2023-04-25T19:31:34.952Z,75.42
2023-04-25T19:34:04.858Z,73.70
2023-04-25T19:36:33.279Z,75.45
2023-04-25T19:39:04.470Z,76.78
2023-04-25T19:41:33.674Z,79.44
2023-04-25T19:44:02.138Z,81.20
2023-04-25T19:46:31.150Z,80.26
2023-04-25T19:48:59.352Z,80.48
2023-04-25T19:51:28.306Z,79.97
2023-04-25T19:53:56.986Z,80.16
2023-04-25T19:56:27.311Z,79.72
2023-04-25T19:58:56.287Z,79.71
2023-04-25T20:01:24.542Z,79.46
2023-04-25T20:03:52.852Z,79.72
2023-04-25T20:06:21.683Z,80.33
2023-04-25T20:08:50.586Z,80.69
2023-04-25T20:11:19.065Z,81.01
2023-04-25T20:13:48.774Z,80.34
2023-04-25T20:16:19.999Z,78.55
2023-04-25T20:18:48.707Z,78.32
2023-04-25T20:21:17.908Z,77.39
2023-04-25T20:23:46.951Z,77.87
2023-04-25T20:26:15.150Z,77.75
2023-04-25T20:28:43.828Z,78.64
2023-04-25T20:31:13.334Z,77.99
2023-04-25T20:33:43.748Z,78.14
2023-04-25T20:36:12.071Z,79.38
2023-04-25T20:38:40.130Z,79.68
2023-04-25T20:41:08.433Z,80.09
2023-04-25T20:43:38.234Z,80.15
2023-04-25T20:46:06.707Z,80.07
2023-04-25T20:48:36.759Z,80.75
2023-04-25T20:51:07.253Z,81.72
2023-04-25T20:53:35.886Z,81.31
2023-04-25T20:56:04.544Z,81.23
2023-04-25T20:58:33.344Z,81.22
2023-04-25T21:01:02.132Z,77.57
2023-04-25T21:03:30.747Z,77.98
2023-04-25T21:06:00.423Z,77.90
2023-04-25T21:08:28.708Z,78.47
2023-04-25T21:10:56.838Z,78.39
2023-04-25T21:13:27.306Z,78.97
2023-04-25T21:15:55.608Z,79.36
2023-04-25T21:18:24.053Z,80.47
2023-04-25T21:20:52.433Z,81.18
2023-04-25T21:23:22.380Z,81.63
2023-04-25T21:25:51.697Z,82.05
2023-04-25T21:28:19.911Z,81.55
2023-04-25T21:30:48.575Z,81.97
2023-04-25T21:33:16.764Z,81.71
2023-04-25T21:35:45.117Z,83.36
2023-04-25T21:38:14.700Z,83.84
2023-04-25T21:40:44.343Z,83.60
2023-04-25T21:43:12.440Z,83.41
2023-04-25T21:46:05.696Z,84.05
2023-04-25T21:48:29.089Z,83.02
2023-04-25T21:50:57.262Z,81.98
2023-04-25T21:53:26.812Z,81.81
2023-04-25T21:55:56.271Z,81.65
2023-04-25T21:58:24.832Z,81.41
2023-04-25T22:00:53.191Z,81.76
2023-04-25T22:03:21.528Z,81.16
2023-04-25T22:05:49.715Z,81.80
2023-04-25T22:08:17.840Z,81.05
2023-04-25T22:10:46.426Z,81.54
2023-04-25T22:13:16.432Z,81.88
2023-04-25T22:15:44.905Z,81.78
2023-04-25T22:18:14.426Z,81.78
2023-04-25T22:20:44.296Z,81.29
2023-04-25T22:23:13.067Z,81.02
2023-04-25T22:25:42.174Z,80.77
2023-04-25T22:28:10.839Z,80.63
2023-04-25T22:30:40.183Z,79.82
2023-04-25T22:33:08.281Z,80.48
2023-04-25T22:35:36.307Z,79.52
2023-04-25T22:38:04.715Z,79.68
2023-04-25T22:40:32.899Z,79.41
2023-04-25T22:43:00.950Z,78.85
2023-04-25T22:45:29.364Z,78.77
2023-04-25T22:47:58.967Z,79.30
2023-04-25T22:50:27.819Z,79.10
2023-04-25T22:52:56.121Z,79.18
2023-04-25T22:55:24.333Z,79.76
2023-04-25T22:57:52.839Z,79.82
2023-04-25T23:00:21.854Z,79.69
2023-04-25T23:02:50.745Z,79.67
2023-04-25T23:05:21.406Z,79.63
2023-04-25T23:07:49.545Z,79.58
2023-04-25T23:10:18.803Z,78.54
2023-04-25T23:12:46.969Z,79.38
2023-04-25T23:15:15.278Z,79.06
2023-04-25T23:17:43.587Z,79.34
2023-04-25T23:20:13.411Z,78.52
2023-04-25T23:22:42.874Z,78.31
2023-04-25T23:25:11.963Z,78.25
2023-04-25T23:27:40.079Z,78.46
2023-04-25T23:30:10.151Z,79.00
2023-04-25T23:32:38.644Z,77.78
2023-04-25T23:35:07.772Z,79.39
2023-04-25T23:37:37.360Z,78.42
2023-04-25T23:40:10.063Z,78.18
2023-04-25T23:42:39.442Z,77.77
2023-04-25T23:45:09.578Z,79.07
2023-04-25T23:47:38.313Z,78.81
2023-04-25T23:50:08.068Z,78.17
2023-04-25T23:52:36.259Z,79.46
2023-04-25T23:55:05.536Z,78.82
2023-04-25T23:57:35.017Z,79.60
